Time;durP1;ratioP1;P1;durP2;ratioP2;P2;SDS_P1;SDS_P2;PMS_P1;PMS_P2;Temp;Humidity;BMP_temperature;BMP_pressure;BME280_temperature;BME280_humidity;BME280_pressure;Samples;Min_cycle;Max_cycle;Signal;HPM_P1;HPM_P2
2022/09/17 00:00:40;;;;;;;;;;;;;;;22.62;58.51;98375.44;7316191;19;130308;-37
2022/09/17 00:03:07;;;;;;;;;;;;;;;22.67;58.82;98389.66;7316812;19;128780;-37
2022/09/17 00:05:32;;;;;;;;;;;;;;;22.66;58.72;98389.81;7318478;19;129057;-37
2022/09/17 00:07:58;;;;;;;;;;;;;;;22.59;58.85;98367.94;7317548;19;129683;-37
2022/09/17 00:10:23;;;;;;;;;;;;;;;22.63;58.90;98390.16;7317027;19;130843;-37
2022/09/17 00:12:49;;;;;;;;;;;;;;;22.62;58.47;98391.97;7316992;19;129551;-38
2022/09/17 00:15:14;;;;;;;;;;;;;;;22.65;58.21;98385.56;7315800;19;129893;-38
2022/09/17 00:17:40;;;;;;;;;;;;;;;22.63;58.42;98395.38;7318057;19;130384;-38
2022/09/17 00:20:09;;;;;;;;;;;;;;;22.63;58.20;98392.78;7316096;19;131260;-37
2022/09/17 00:22:34;;;;;;;;;;;;;;;22.63;58.51;98395.38;7316912;19;129449;-37
2022/09/17 00:24:59;;;;;;;;;;;;;;;22.61;58.38;98400.00;7318530;19;129175;-37
2022/09/17 00:27:25;;;;;;;;;;;;;;;22.65;58.75;98391.63;7316876;19;130595;-38
2022/09/17 00:29:50;;;;;;;;;;;;;;;22.66;57.90;98397.69;7314511;19;130249;-38
2022/09/17 00:32:15;;;;;;;;;;;;;;;22.65;58.71;98390.78;7316326;19;129518;-37
2022/09/17 00:34:41;;;;;;;;;;;;;;;22.68;58.53;98395.69;7315725;19;129216;-38
2022/09/17 00:37:07;;;;;;;;;;;;;;;22.66;58.26;98392.44;7316923;19;130165;-38
2022/09/17 00:39:32;;;;;;;;;;;;;;;22.63;58.74;98398.00;7316390;19;130230;-38
2022/09/17 00:41:57;;;;;;;;;;;;;;;22.63;58.39;98393.59;7316423;19;129648;-37
2022/09/17 00:44:41;;;;;;;;;;;;;;;22.66;58.34;98402.94;7316520;19;129083;-38
2022/09/17 00:47:10;;;;;;;;;;;;;;;22.65;58.67;98401.28;7316114;19;130315;-38
2022/09/17 00:49:36;;;;;;;;;;;;;;;22.65;58.57;98406.50;7314909;19;130393;-37
2022/09/17 00:52:07;;;;;;;;;;;;;;;22.66;57.78;98400.31;7315855;19;129148;-35
2022/09/17 00:54:33;;;;;;;;;;;;;;;22.67;57.85;98399.31;7314416;19;129487;-35
2022/09/17 00:56:58;;;;;;;;;;;;;;;22.61;58.23;98394.78;7316278;19;129550;-37
2022/09/17 00:59:24;;;;;;;;;;;;;;;22.63;58.04;98400.63;7315343;19;131180;-37
2022/09/17 01:01:49;;;;;;;;;;;;;;;22.52;58.57;98369.59;7313913;19;130905;-37
2022/09/17 01:04:16;;;;;;;;;;;;;;;22.61;58.44;98390.31;7314090;19;129244;-37
2022/09/17 01:06:46;;;;;;;;;;;;;;;22.55;58.66;98374.50;7315710;19;130016;-37
2022/09/17 01:09:22;;;;;;;;;;;;;;;22.62;58.07;98391.16;7316009;19;129429;-37
2022/09/17 01:11:47;;;;;;;;;;;;;;;22.61;58.77;98385.09;7316158;19;130896;-37
2022/09/17 01:14:35;;;;;;;;;;;;;;;22.61;57.97;98390.31;7314423;19;129050;-37
2022/09/17 01:17:17;;;;;;;;;;;;;;;22.62;58.54;98396.38;7314095;19;129289;-37
2022/09/17 01:20:00;;;;;;;;;;;;;;;22.63;58.43;98390.16;7316230;19;129524;-37
2022/09/17 01:22:26;;;;;;;;;;;;;;;;;;7315205;19;129341;-38
2022/09/17 01:24:51;;;;;;;;;;;;;;;;;;7314664;19;129181;-37
2022/09/17 01:27:24;;;;;;;;;;;;;;;22.61;57.94;98395.56;7313044;19;129215;-37
2022/09/17 01:29:49;;;;;;;;;;;;;;;22.56;58.17;98386.63;7315289;19;130287;-37
2022/09/17 01:32:20;;;;;;;;;;;;;;;22.60;58.01;98399.19;7314794;19;128863;-37
2022/09/17 01:34:55;;;;;;;;;;;;;;;22.61;58.47;98397.41;7314321;19;129936;-37
2022/09/17 01:37:59;;;;;;;;;;;;;;;22.62;58.19;98397.22;7314488;19;130225;-37
2022/09/17 01:40:43;;;;;;;;;;;;;;;22.62;58.16;98388.53;7308123;19;129753;-37
2022/09/17 01:43:12;;;;;;;;;;;;;;;22.62;58.46;98402.44;7309709;19;129328;-37
2022/09/17 01:45:40;;;;;;;;;;;;;;;22.61;57.86;98405.25;7312014;19;129434;-37
2022/09/17 01:48:05;;;;;;;;;;;;;;;22.61;57.68;98406.03;7314708;19;129254;-37
2022/09/17 01:50:36;;;;;;;;;;;;;;;22.54;57.82;98388.59;7313333;19;130421;-37
2022/09/17 01:53:02;;;;;;;;;;;;;;;22.65;57.71;98409.13;7315184;19;128997;-37
2022/09/17 01:55:31;;;;;;;;;;;;;;;22.62;57.54;98396.38;7311156;19;129281;-37
2022/09/17 01:57:56;;;;;;;;;;;;;;;;;;7315772;19;130471;-37
2022/09/17 02:00:22;;;;;;;;;;;;;;;22.63;58.04;98398.00;7311577;19;130999;-37
2022/09/17 02:03:00;;;;;;;;;;;;;;;22.60;58.07;98403.59;7314323;19;129192;-37
2022/09/17 02:05:25;;;;;;;;;;;;;;;22.61;58.32;98403.44;7314717;19;129053;-37
2022/09/17 02:07:53;;;;;;;;;;;;;;;22.63;57.56;98403.25;7313817;19;130115;-37
2022/09/17 02:10:21;;;;;;;;;;;;;;;22.64;58.00;98397.03;7313477;19;129783;-37
2022/09/17 02:12:50;;;;;;;;;;;;;;;22.54;58.43;98399.06;7314522;19;129013;-37
2022/09/17 02:15:20;;;;;;;;;;;;;;;22.62;57.87;98396.38;7311761;19;129080;-37
2022/09/17 02:17:48;;;;;;;;;;;;;;;22.59;58.05;98417.69;7313559;19;130033;-37
2022/09/17 02:20:15;;;;;;;;;;;;;;;22.61;58.19;98395.56;7312007;19;130400;-37
2022/09/17 02:22:56;;;;;;;;;;;;;;;22.63;57.81;98403.25;7311999;19;129065;-37
2022/09/17 02:25:35;;;;;;;;;;;;;;;22.60;57.84;98400.97;7313104;19;129387;-37
2022/09/17 02:28:00;;;;;;;;;;;;;;;22.60;58.11;98403.59;7314362;19;131123;-37
2022/09/17 02:30:26;;;;;;;;;;;;;;;22.58;57.61;98389.84;7312631;19;130350;-37
2022/09/17 02:32:52;;;;;;;;;;;;;;;22.59;58.21;98391.50;7312987;19;129390;-37
2022/09/17 02:35:21;;;;;;;;;;;;;;;22.53;58.21;98376.47;7310643;19;129296;-37
2022/09/17 02:37:46;;;;;;;;;;;;;;;22.60;57.61;98387.88;7312508;19;130448;-37
2022/09/17 02:40:13;;;;;;;;;;;;;;;22.59;57.68;98391.50;7310636;19;129388;-37
2022/09/17 02:42:46;;;;;;;;;;;;;;;22.58;57.89;98384.63;7312687;19;129042;-37
2022/09/17 02:45:18;;;;;;;;;;;;;;;22.58;57.60;98395.09;7313086;19;128875;-37
2022/09/17 02:47:49;;;;;;;;;;;;;;;22.58;57.66;98385.44;7310322;19;130862;-37
2022/09/17 02:50:17;;;;;;;;;;;;;;;22.58;57.39;98385.44;7311584;19;129359;-37
2022/09/17 02:53:01;;;;;;;;;;;;;;;22.49;57.97;98369.94;7311423;19;129407;-37
2022/09/17 02:55:35;;;;;;;;;;;;;;;22.59;57.86;98384.44;7310944;19;128990;-37
2022/09/17 02:58:03;;;;;;;;;;;;;;;22.59;57.63;98381.03;7311308;19;130860;-37
2022/09/17 03:00:29;;;;;;;;;;;;;;;22.59;57.62;98386.28;7312043;19;130295;-37
2022/09/17 03:03:00;;;;;;;;;;;;;;;22.57;57.66;98383.00;7311941;19;129237;-37
2022/09/17 03:05:26;;;;;;;;;;;;;;;22.61;57.99;98373.81;7312244;19;129399;-37
2022/09/17 03:07:53;;;;;;;;;;;;;;;22.61;57.63;98386.91;7311856;19;130834;-37
2022/09/17 03:10:18;;;;;;;;;;;;;;;22.59;57.85;98373.16;7309982;19;129235;-37
2022/09/17 03:12:44;;;;;;;;;;;;;;;22.62;57.55;98383.28;7317297;19;128802;-37
2022/09/17 03:15:09;;;;;;;;;;;;;;;22.60;57.65;98377.41;7317226;19;129230;-37
2022/09/17 03:17:34;;;;;;;;;;;;;;;22.61;57.69;98379.06;7318116;19;129711;-37
2022/09/17 03:20:00;;;;;;;;;;;;;;;22.60;57.70;98366.94;7317807;19;129859;-37
2022/09/17 03:22:25;;;;;;;;;;;;;;;22.52;57.38;98373.03;7318617;19;129112;-37
2022/09/17 03:24:50;;;;;;;;;;;;;;;22.58;57.75;98385.44;7318451;19;128647;-37
2022/09/17 03:27:15;;;;;;;;;;;;;;;22.60;57.90;98387.88;7318321;19;129860;-37
2022/09/17 03:29:41;;;;;;;;;;;;;;;22.60;57.58;98393.94;7318432;19;129929;-37
2022/09/17 03:32:07;;;;;;;;;;;;;;;22.59;57.85;98402.00;7317791;19;128876;-37
2022/09/17 03:34:32;;;;;;;;;;;;;;;22.57;57.70;98394.31;7317862;19;129104;-37
2022/09/17 03:36:57;;;;;;;;;;;;;;;22.59;57.99;98404.59;7317939;19;130298;-37
2022/09/17 03:39:23;;;;;;;;;;;;;;;22.56;57.95;98405.75;7318942;19;130335;-37
2022/09/17 03:41:48;;;;;;;;;;;;;;;22.57;57.52;98409.19;7317627;19;129189;-37
2022/09/17 03:44:14;;;;;;;;;;;;;;;22.57;57.63;98404.78;7318644;19;129611;-37
2022/09/17 03:46:39;;;;;;;;;;;;;;;22.57;58.10;98398.72;7316060;19;130228;-37
2022/09/17 03:49:05;;;;;;;;;;;;;;;22.58;57.76;98402.97;7317120;19;129572;-37
2022/09/17 03:51:30;;;;;;;;;;;;;;;22.59;57.48;98413.25;7315045;19;129954;-37
2022/09/17 03:53:55;;;;;;;;;;;;;;;22.58;57.97;98402.97;7317812;19;129430;-37
2022/09/17 03:56:20;;;;;;;;;;;;;;;22.55;57.33;98412.00;7318140;19;129224;-37
2022/09/17 03:58:46;;;;;;;;;;;;;;;22.57;57.78;98403.97;7317233;19;129460;-37
2022/09/17 04:01:11;;;;;;;;;;;;;;;22.55;57.67;98414.63;7315151;19;129506;-37
2022/09/17 04:03:36;;;;;;;;;;;;;;;22.56;58.05;98413.63;7317287;19;129424;-37
2022/09/17 04:06:02;;;;;;;;;;;;;;;22.56;58.29;98415.44;7318166;19;130141;-37
2022/09/17 04:08:27;;;;;;;;;;;;;;;22.57;57.25;98415.25;7317296;19;131040;-37
2022/09/17 04:10:52;;;;;;;;;;;;;;;22.56;57.86;98418.84;7316199;19;128875;-37
2022/09/17 04:13:18;;;;;;;;;;;;;;;22.47;57.74;98398.94;7317401;19;129586;-37
2022/09/17 04:15:43;;;;;;;;;;;;;;;22.55;57.81;98411.16;7314621;19;129715;-37
2022/09/17 04:18:09;;;;;;;;;;;;;;;22.47;57.95;98398.94;7317582;19;131464;-37
2022/09/17 04:20:34;;;;;;;;;;;;;;;22.54;57.72;98404.31;7316402;19;129368;-38
2022/09/17 04:23:00;;;;;;;;;;;;;;;22.57;57.76;98427.53;7315808;19;129031;-37
2022/09/17 04:25:25;;;;;;;;;;;;;;;22.56;58.11;98416.22;7315486;19;130735;-38
2022/09/17 04:27:50;;;;;;;;;;;;;;;22.47;57.80;98404.16;7317470;19;131294;-38
2022/09/17 04:30:16;;;;;;;;;;;;;;;22.54;57.68;98404.31;7315703;19;130262;-38
2022/09/17 04:32:44;;;;;;;;;;;;;;;22.46;57.68;98396.47;7316496;19;129083;-38
2022/09/17 04:35:10;;;;;;;;;;;;;;;22.56;57.70;98416.22;7315284;19;130428;-38
2022/09/17 04:37:36;;;;;;;;;;;;;;;22.47;57.99;98398.09;7303286;19;129862;-37
2022/09/17 04:40:01;;;;;;;;;;;;;;;22.56;58.08;98423.28;7311538;19;129230;-37
2022/09/17 04:42:26;;;;;;;;;;;;;;;22.55;58.21;98421.66;7313682;19;130516;-37
2022/09/17 04:44:52;;;;;;;;;;;;;;;22.56;58.31;98418.06;7313486;19;130212;-37
2022/09/17 04:47:17;;;;;;;;;;;;;;;22.56;57.55;98418.84;7315031;19;129314;-37
2022/09/17 04:49:42;;;;;;;;;;;;;;;22.57;57.53;98419.69;7315283;19;130554;-37
2022/09/17 04:52:07;;;;;;;;;;;;;;;22.57;57.96;98414.44;7314786;19;129480;-37
2022/09/17 04:54:33;;;;;;;;;;;;;;;22.57;57.98;98427.53;7316455;19;130022;-37
2022/09/17 04:56:59;;;;;;;;;;;;;;;22.57;58.05;98422.28;7313330;19;130357;-37
2022/09/17 04:59:24;;;;;;;;;;;;;;;22.56;58.06;98423.28;7316262;19;130253;-37
2022/09/17 05:01:49;;;;;;;;;;;;;;;22.55;57.33;98419.84;7314633;19;129766;-37
2022/09/17 05:04:14;;;;;;;;;;;;;;;22.49;57.87;98417.09;7315466;19;130529;-37
2022/09/17 05:06:40;;;;;;;;;;;;;;;22.56;57.74;98439.00;7315103;19;129745;-37
2022/09/17 05:09:05;;;;;;;;;;;;;;;22.56;58.03;98431.16;7309985;19;130560;-37
2022/09/17 05:11:30;;;;;;;;;;;;;;;22.54;57.57;98433.94;7299714;19;129663;-37
2022/09/17 05:13:56;;;;;;;;;;;;;;;22.52;57.85;98437.69;7301739;19;131484;-37
2022/09/17 05:16:21;;;;;;;;;;;;;;;22.56;58.07;98433.78;7295331;19;132236;-37
2022/09/17 05:18:48;;;;;;;;;;;;;;;22.54;57.54;98435.75;7315857;19;129769;-37
2022/09/17 05:21:13;;;;;;;;;;;;;;;22.56;57.82;98441.63;7312327;19;128867;-37
2022/09/17 05:23:39;;;;;;;;;;;;;;;22.55;57.56;98427.72;7308988;19;129517;-37
2022/09/17 05:26:04;;;;;;;;;;;;;;;22.56;57.39;98433.78;7311628;19;131015;-37
2022/09/17 05:28:29;;;;;;;;;;;;;;;22.55;57.44;98438.19;7314526;19;130011;-37
2022/09/17 05:30:57;;;;;;;;;;;;;;;22.57;57.83;98438.84;7313235;19;129226;-37
2022/09/17 05:33:23;;;;;;;;;;;;;;;22.47;58.20;98429.53;7312796;19;129840;-36
2022/09/17 05:35:48;;;;;;;;;;;;;;;22.56;57.46;98452.13;7309097;19;129428;-38
2022/09/17 05:38:13;;;;;;;;;;;;;;;22.48;58.06;98425.91;7312248;19;132035;-38
2022/09/17 05:40:38;;;;;;;;;;;;;;;22.55;58.14;98438.19;7314119;19;129164;-37
2022/09/17 05:43:04;;;;;;;;;;;;;;;22.49;57.49;98422.31;7314504;19;129366;-38
2022/09/17 05:45:31;;;;;;;;;;;;;;;22.56;57.55;98434.56;7313803;19;130977;-37
2022/09/17 05:47:57;;;;;;;;;;;;;;;22.55;57.49;98439.97;7312575;19;130574;-37
2022/09/17 05:50:22;;;;;;;;;;;;;;;22.55;57.54;98446.03;7312313;19;129073;-38
2022/09/17 05:52:48;;;;;;;;;;;;;;;22.56;57.88;98444.25;7309522;19;129948;-37
2022/09/17 05:55:13;;;;;;;;;;;;;;;22.49;57.52;98424.94;7310682;19;130780;-38
2022/09/17 05:57:38;;;;;;;;;;;;;;;22.56;57.41;98436.41;7310894;19;129510;-38
2022/09/17 06:00:04;;;;;;;;;;;;;;;22.57;57.66;98436.22;7283571;19;129783;-38
2022/09/17 06:02:29;;;;;;;;;;;;;;;22.56;57.23;98441.63;7300351;19;130032;-38
2022/09/17 06:04:55;;;;;;;;;;;;;;;22.49;57.79;98431.00;7306431;19;131197;-38
2022/09/17 06:07:20;;;;;;;;;;;;;;;22.64;57.37;98436.34;7310068;19;130454;-37
2022/09/17 06:09:45;;;;;;;;;;;;;;;22.61;57.31;98441.94;7312038;19;129435;-37
2022/09/17 06:12:10;;;;;;;;;;;;;;;22.61;57.85;98431.44;7309530;19;129625;-37
2022/09/17 06:14:36;;;;;;;;;;;;;;;22.58;57.87;98450.09;7310471;19;130275;-38
2022/09/17 06:17:01;;;;;;;;;;;;;;;22.58;57.63;98445.69;7314253;19;129074;-38
2022/09/17 06:19:27;;;;;;;;;;;;;;;22.53;57.63;98428.84;7312141;19;129040;-38
2022/09/17 06:21:52;;;;;;;;;;;;;;;22.57;57.34;98453.72;7310382;19;129096;-38
2022/09/17 06:24:17;;;;;;;;;;;;;;;22.56;58.13;98454.72;7311968;19;129684;-37
2022/09/17 06:26:43;;;;;;;;;;;;;;;22.56;57.63;98444.25;7312650;19;129252;-37
2022/09/17 06:29:08;;;;;;;;;;;;;;;22.56;57.71;98449.50;7311441;19;129476;-38
2022/09/17 06:31:34;;;;;;;;;;;;;;;22.56;57.47;98454.72;7306823;19;130185;-37
2022/09/17 06:33:59;;;;;;;;;;;;;;;22.56;58.20;98454.72;7312771;19;131731;-38
2022/09/17 06:36:24;;;;;;;;;;;;;;;22.55;57.95;98453.06;7312408;19;129051;-37
2022/09/17 06:38:50;;;;;;;;;;;;;;;22.56;57.75;98449.50;7311857;19;129238;-37
2022/09/17 06:41:15;;;;;;;;;;;;;;;22.56;57.38;98446.88;7309231;19;130275;-39
2022/09/17 06:43:41;;;;;;;;;;;;;;;22.46;57.99;98433.16;7310971;19;129266;-40
2022/09/17 06:46:07;;;;;;;;;;;;;;;22.55;58.19;98439.97;7314277;19;129384;-39
2022/09/17 06:48:33;;;;;;;;;;;;;;;22.57;57.61;98446.69;7295495;19;130695;-39
2022/09/17 06:51:03;;;;;;;;;;;;;;;22.55;57.88;98442.59;7312407;19;129745;-39
2022/09/17 06:53:28;;;;;;;;;;;;;;;22.59;57.61;98439.44;7316344;19;129202;-38
2022/09/17 06:55:55;;;;;;;;;;;;;;;22.58;56.54;98439.63;7314881;19;129314;-38
2022/09/17 06:58:21;;;;;;;;;;;;;;;22.50;57.12;98444.91;7317665;19;128871;-39
2022/09/17 07:00:46;;;;;;;;;;;;;;;22.43;57.44;98433.50;7317092;19;129752;-38
2022/09/17 07:03:12;;;;;;;;;;;;;;;22.51;57.51;98449.94;7293466;19;131010;-39
2022/09/17 07:05:37;;;;;;;;;;;;;;;22.38;56.67;98427.97;7298186;19;130469;-37
2022/09/17 07:08:02;;;;;;;;;;;;;;;22.48;57.00;98441.63;7311833;19;130160;-37
2022/09/17 07:10:28;;;;;;;;;;;;;;;22.46;56.82;98433.94;7316767;19;129855;-37
2022/09/17 07:12:53;;;;;;;;;;;;;;;22.41;57.29;98435.47;7309871;19;129125;-37
2022/09/17 07:15:19;;;;;;;;;;;;;;;22.42;57.09;98442.31;7313939;19;131040;-37
2022/09/17 07:17:44;;;;;;;;;;;;;;;22.38;56.78;98436.63;7316299;19;129047;-37
2022/09/17 07:20:09;;;;;;;;;;;;;;;22.35;57.71;98444.00;7316537;19;129797;-37
2022/09/17 07:22:35;;;;;;;;;;;;;;;22.24;56.75;98423.44;7315269;19;129535;-37
2022/09/17 07:25:00;;;;;;;;;;;;;;;22.30;56.98;98443.69;7318125;19;129620;-37
2022/09/17 07:27:26;;;;;;;;;;;;;;;22.21;57.61;98439.50;7317643;19;129948;-37
2022/09/17 07:29:51;;;;;;;;;;;;;;;22.20;57.36;98440.47;7315779;19;129611;-37
2022/09/17 07:32:16;;;;;;;;;;;;;;;22.23;58.04;98453.25;7315475;19;129494;-38
2022/09/17 07:34:41;;;;;;;;;;;;;;;22.27;57.73;98455.34;7314365;19;128901;-37
2022/09/17 07:37:07;;;;;;;;;;;;;;;22.23;57.35;98442.78;7310401;19;129218;-37
2022/09/17 07:39:32;;;;;;;;;;;;;;;22.33;57.21;98474.81;7317252;19;130034;-38
2022/09/17 07:41:57;;;;;;;;;;;;;;;22.29;56.85;98463.03;7315795;19;129262;-37
2022/09/17 07:44:23;;;;;;;;;;;;;;;22.28;57.06;98477.13;7317320;19;130078;-37
2022/09/17 07:46:48;;;;;;;;;;;;;;;22.31;57.00;98476.75;7316667;19;129304;-37
2022/09/17 07:49:13;;;;;;;;;;;;;;;22.35;56.23;98483.28;7316976;19;130488;-37
2022/09/17 07:51:38;;;;;;;;;;;;;;;22.30;56.86;98477.72;7312418;19;129451;-37
2022/09/17 07:54:05;;;;;;;;;;;;;;;22.34;56.33;98489.50;7316834;19;129279;-37
2022/09/17 07:56:30;;;;;;;;;;;;;;;22.18;56.96;98476.50;7312016;19;129549;-37
2022/09/17 07:58:55;;;;;;;;;;;;;;;22.31;56.83;98492.47;7314499;19;129098;-37
2022/09/17 08:01:21;;;;;;;;;;;;;;;22.22;56.50;98472.53;7314869;19;130668;-37
2022/09/17 08:03:51;;;;;;;;;;;;;;;22.35;56.66;98491.97;7314103;19;128833;-37
2022/09/17 08:06:18;;;;;;;;;;;;;;;22.37;56.50;98492.59;7316167;19;131679;-37
2022/09/17 08:08:44;;;;;;;;;;;;;;;22.38;56.59;98503.91;7315076;19;129636;-37
2022/09/17 08:11:17;;;;;;;;;;;;;;;22.37;56.64;98510.94;7313728;19;129238;-37
2022/09/17 08:13:42;;;;;;;;;;;;;;;22.39;56.88;98518.63;7314655;19;129675;-37
2022/09/17 08:16:11;;;;;;;;;;;;;;;22.37;56.53;98507.50;7314146;19;129307;-37
2022/09/17 08:18:37;;;;;;;;;;;;;;;22.40;56.59;98521.06;7313189;19;130062;-37
2022/09/17 08:21:03;;;;;;;;;;;;;;;22.41;57.21;98519.28;7314579;19;129439;-37
2022/09/17 08:23:29;;;;;;;;;;;;;;;22.43;56.92;98517.31;7314931;19;129770;-37
2022/09/17 08:25:56;;;;;;;;;;;;;;;22.41;56.88;98524.50;7315513;19;130466;-37
2022/09/17 08:28:25;;;;;;;;;;;;;;;22.44;56.42;98524.16;7315253;19;129208;-37
2022/09/17 08:30:51;;;;;;;;;;;;;;;22.46;56.47;98514.34;7313770;19;131931;-37
2022/09/17 08:33:16;;;;;;;;;;;;;;;22.44;57.02;98521.53;7314232;19;129442;-37
2022/09/17 08:35:42;;;;;;;;;;;;;;;22.42;56.91;98528.75;7313040;19;130309;-37
2022/09/17 08:38:07;;;;;;;;;;;;;;;22.41;56.87;98525.31;7312961;19;129300;-36
2022/09/17 08:40:36;;;;;;;;;;;;;;;22.46;57.25;98530.06;7311144;19;129608;-37
2022/09/17 08:43:01;;;;;;;;;;;;;;;22.46;56.54;98537.91;7313460;19;129252;-37
2022/09/17 08:45:27;;;;;;;;;;;;;;;22.46;56.80;98545.78;7312862;19;131158;-37
2022/09/17 08:48:00;;;;;;;;;;;;;;;22.41;57.16;98532.38;7314192;19;129506;-37
2022/09/17 08:50:28;;;;;;;;;;;;;;;22.46;56.54;98548.38;7314356;19;129319;-37
2022/09/17 08:52:58;;;;;;;;;;;;;;;22.36;56.99;98534.69;7314087;19;128848;-37
2022/09/17 08:55:43;;;;;;;;;;;;;;;22.47;56.96;98550.00;7314988;19;128891;-37
2022/09/17 08:58:32;;;;;;;;;;;;;;;22.36;57.16;98534.69;7315049;19;130168;-37
2022/09/17 09:01:00;;;;;;;;;;;;;;;22.45;57.24;98558.03;7314014;19;130660;-37
2022/09/17 09:03:48;;;;;;;;;;;;;;;22.44;56.87;98555.59;7306525;19;129956;-37
2022/09/17 09:06:14;;;;;;;;;;;;;;;22.43;55.89;98556.59;7314892;19;128874;-37
2022/09/17 09:08:50;;;;;;;;;;;;;;;22.33;56.52;98558.59;7310828;19;129868;-37
2022/09/17 09:11:17;;;;;;;;;;;;;;;22.29;56.71;98552.03;7309387;19;129665;-37
2022/09/17 09:13:47;;;;;;;;;;;;;;;22.36;57.20;98553.81;7311880;19;129808;-37
2022/09/17 09:16:18;;;;;;;;;;;;;;;22.30;55.79;98543.19;7309840;19;129097;-37
2022/09/17 09:18:43;;;;;;;;;;;;;;;22.29;56.64;98552.03;7310930;19;130649;-37
2022/09/17 09:21:11;;;;;;;;;;;;;;;22.34;56.97;98552.34;7308220;19;130125;-37
2022/09/17 09:23:51;;;;;;;;;;;;;;;22.29;56.57;98537.16;7308255;19;129623;-37
2022/09/17 09:26:21;;;;;;;;;;;;;;;22.24;56.78;98543.88;7313110;19;130753;-37
2022/09/17 09:28:52;;;;;;;;;;;;;;;22.34;57.42;98542.72;7311579;19;130410;-37
2022/09/17 09:31:17;;;;;;;;;;;;;;;22.40;57.04;98549.06;7310411;19;131111;-37
2022/09/17 09:33:43;;;;;;;;;;;;;;;22.19;55.52;98540.94;7307639;19;129749;-37
2022/09/17 09:36:13;;;;;;;;;;;;;;;22.31;55.89;98552.69;7313880;19;129082;-37
2022/09/17 09:38:56;;;;;;;;;;;;;;;22.25;55.74;98566.44;7311146;19;129845;-37
2022/09/17 09:41:24;;;;;;;;;;;;;;;22.20;56.37;98559.09;7306052;19;130111;-37
2022/09/17 09:44:10;;;;;;;;;;;;;;;22.26;56.46;98561.06;7312776;19;129057;-37
2022/09/17 09:46:55;;;;;;;;;;;;;;;22.23;56.07;98557.97;7312514;19;130449;-37
2022/09/17 09:49:20;;;;;;;;;;;;;;;22.22;56.51;98562.38;7315730;19;130150;-36
2022/09/17 09:52:04;;;;;;;;;;;;;;;22.23;55.85;98558.75;7304836;19;130383;-37
2022/09/17 09:54:48;;;;;;;;;;;;;;;22.27;56.20;98570.53;7314540;19;129391;-37
2022/09/17 09:57:16;;;;;;;;;;;;;;;22.20;56.05;98558.28;7308486;19;131253;-36
2022/09/17 09:59:41;;;;;;;;;;;;;;;22.10;56.33;98555.88;7313677;19;129225;-38
2022/09/17 10:02:07;;;;;;;;;;;;;;;22.02;55.79;98544.59;7314691;19;129461;-37
2022/09/17 10:04:32;;;;;;;;;;;;;;;22.12;56.06;98558.31;7314619;19;129548;-37
2022/09/17 10:07:02;;;;;;;;;;;;;;;22.11;56.29;98551.44;7296302;19;131456;-37
2022/09/17 10:09:31;;;;;;;;;;;;;;;22.14;55.66;98553.72;7314162;19;130266;-36
2022/09/17 10:12:02;;;;;;;;;;;;;;;22.15;55.73;98558.00;7313701;19;130665;-37
2022/09/17 10:14:29;;;;;;;;;;;;;;;22.15;55.36;98565.84;7310583;19;130869;-37
2022/09/17 10:17:13;;;;;;;;;;;;;;;21.86;54.82;98580.31;7308401;19;129786;-37
2022/09/17 10:19:38;;;;;;;;;;;;;;;22.03;56.01;98572.41;7312883;19;129724;-37
2022/09/17 10:22:24;;;;;;;;;;;;;;;22.08;55.98;98568.28;7312712;19;129301;-36
2022/09/17 10:24:51;;;;;;;;;;;;;;;22.09;55.61;98569.13;7295189;19;132250;-37
2022/09/17 10:27:18;;;;;;;;;;;;;;;22.08;56.62;98564.88;7312861;19;129108;-37
2022/09/17 10:29:45;;;;;;;;;;;;;;;21.98;54.21;98576.34;7310915;19;130358;-37
2022/09/17 10:32:20;;;;;;;;;;;;;;;21.95;55.11;98575.84;7314133;19;129658;-37
2022/09/17 10:35:04;;;;;;;;;;;;;;;22.03;55.80;98573.25;7310751;19;129597;-37
2022/09/17 10:37:43;;;;;;;;;;;;;;;21.93;56.03;98568.16;7313256;19;129086;-37
2022/09/17 10:40:17;;;;;;;;;;;;;;;22.04;55.79;98564.41;7306861;19;130130;-37
2022/09/17 10:43:03;;;;;;;;;;;;;;;21.85;55.00;98557.72;7309609;19;130326;-38
2022/09/17 10:45:29;;;;;;;;;;;;;;;21.95;56.37;98553.13;7309046;19;129143;-37
2022/09/17 10:47:55;;;;;;;;;;;;;;;21.91;54.96;98554.44;7305402;19;130228;-37
2022/09/17 10:50:31;;;;;;;;;;;;;;;21.95;55.09;98541.84;7311292;19;129539;-37
2022/09/17 10:52:59;;;;;;;;;;;;;;;21.92;54.43;98556.09;7311652;19;129663;-37
2022/09/17 10:55:27;;;;;;;;;;;;;;;21.90;55.84;98567.69;7311649;19;129900;-37
2022/09/17 10:58:02;;;;;;;;;;;;;;;21.83;55.14;98545.81;7312987;19;128842;-37
2022/09/17 11:00:33;;;;;;;;;;;;;;;21.91;55.05;98569.34;7290527;19;131038;-37
2022/09/17 11:03:15;;;;;;;;;;;;;;;21.92;55.92;98569.16;7303305;19;131647;-37
2022/09/17 11:05:59;;;;;;;;;;;;;;;21.87;55.15;98558.38;7309562;19;130541;-37
2022/09/17 11:08:43;;;;;;;;;;;;;;;21.88;55.59;98560.00;7311923;19;130615;-36
2022/09/17 11:11:23;;;;;;;;;;;;;;;21.90;55.30;98538.91;7307222;19;129547;-36
2022/09/17 11:13:48;;;;;;;;;;;;;;;21.77;54.21;98547.28;7309678;19;129617;-36
2022/09/17 11:16:19;;;;;;;;;;;;;;;21.78;54.08;98538.44;7310951;19;129491;-37
2022/09/17 11:18:55;;;;;;;;;;;;;;;21.82;55.01;98544.97;7312969;19;128902;-37
2022/09/17 11:21:26;;;;;;;;;;;;;;;21.85;54.36;98543.81;7304907;19;130539;-37
2022/09/17 11:24:03;;;;;;;;;;;;;;;21.86;54.79;98543.69;7309994;19;129259;-37
2022/09/17 11:26:37;;;;;;;;;;;;;;;21.85;55.18;98552.50;7309350;19;131083;-37
2022/09/17 11:29:21;;;;;;;;;;;;;;;21.84;54.95;98552.66;7310732;19;129441;-37
2022/09/17 11:31:58;;;;;;;;;;;;;;;21.83;54.45;98551.03;7309403;19;129367;-37
2022/09/17 11:34:35;;;;;;;;;;;;;;;21.78;53.36;98554.13;7315697;19;129495;-37
2022/09/17 11:37:15;;;;;;;;;;;;;;;21.80;55.20;98562.63;7315496;19;129264;-37
2022/09/17 11:39:40;;;;;;;;;;;;;;;21.81;55.17;98556.44;7316994;19;129764;-37
2022/09/17 11:42:09;;;;;;;;;;;;;;;21.80;55.47;98582.75;7315172;19;130043;-37
2022/09/17 11:44:39;;;;;;;;;;;;;;;21.75;53.73;98570.13;7317587;19;129227;-37
2022/09/17 11:47:12;;;;;;;;;;;;;;;21.75;55.38;98583.22;7317092;19;128948;-37
2022/09/17 11:49:53;;;;;;;;;;;;;;;21.70;55.49;98592.56;7317383;19;128846;-37
2022/09/17 11:52:23;;;;;;;;;;;;;;;21.67;55.85;98583.22;7316617;19;129807;-38
2022/09/17 11:54:56;;;;;;;;;;;;;;;21.72;54.94;98583.53;7315220;19;129633;-37
2022/09/17 11:57:25;;;;;;;;;;;;;;;21.77;55.10;98573.44;7318614;19;129412;-37
2022/09/17 11:59:52;;;;;;;;;;;;;;;21.75;55.42;98580.59;7311282;19;130438;-37
2022/09/17 12:02:25;;;;;;;;;;;;;;;21.78;55.47;98579.50;7310268;19;130100;-37
2022/09/17 12:05:05;;;;;;;;;;;;;;;21.78;55.64;98575.06;7314836;19;130354;-40
2022/09/17 12:07:35;;;;;;;;;;;;;;;21.81;55.74;98585.22;7316473;19;130001;-40
2022/09/17 12:10:07;;;;;;;;;;;;;;;21.84;55.52;98579.66;7310039;19;129548;-40
2022/09/17 12:12:36;;;;;;;;;;;;;;;21.87;55.32;98578.47;7314859;19;129604;-39
2022/09/17 12:15:04;;;;;;;;;;;;;;;21.85;54.93;98585.69;7315186;19;129908;-39
2022/09/17 12:17:53;;;;;;;;;;;;;;;21.84;54.63;98581.44;7315076;19;129689;-39
2022/09/17 12:20:26;;;;;;;;;;;;;;;21.83;54.42;98585.06;7313965;19;129170;-40
2022/09/17 12:22:52;;;;;;;;;;;;;;;21.87;54.69;98586.34;7311592;19;130137;-40
2022/09/17 12:25:18;;;;;;;;;;;;;;;21.85;56.00;98581.28;7314455;19;130674;-40
2022/09/17 12:27:59;;;;;;;;;;;;;;;21.83;54.88;98575.38;7315259;19;129212;-40
2022/09/17 12:30:44;;;;;;;;;;;;;;;21.81;55.30;98559.06;7308063;19;130252;-39
2022/09/17 12:33:27;;;;;;;;;;;;;;;21.87;54.99;98554.94;7314006;19;129677;-38
2022/09/17 12:36:06;;;;;;;;;;;;;;;21.89;55.76;98551.19;7315090;19;131571;-38
2022/09/17 12:38:50;;;;;;;;;;;;;;;21.89;55.87;98547.75;7311831;19;130942;-39
2022/09/17 12:41:15;;;;;;;;;;;;;;;21.91;55.45;98551.03;7311526;19;129658;-41
2022/09/17 12:43:44;;;;;;;;;;;;;;;21.92;55.31;98545.63;7311226;19;129524;-38
2022/09/17 12:46:28;;;;;;;;;;;;;;;21.88;55.33;98543.50;7309111;19;129365;-40